sensor_id;sensor_type;location;lat;lon;timestamp;pressure;altitude;pressure_sealevel;temperature
68911;BMP180;55953;51.650;-0.522;2022-11-20T00:01:33;100278.40;;;6.20
68911;BMP180;55953;51.650;-0.522;2022-11-20T00:04:01;100278.40;;;6.20
68911;BMP180;55953;51.650;-0.522;2022-11-20T00:06:29;100267.80;;;6.20
68911;BMP180;55953;51.650;-0.522;2022-11-20T00:08:59;100264.80;;;6.20
68911;BMP180;55953;51.650;-0.522;2022-11-20T00:11:31;100256.00;;;6.20
68911;BMP180;55953;51.650;-0.522;2022-11-20T00:14:01;100260.20;;;6.14
68911;BMP180;55953;51.650;-0.522;2022-11-20T00:16:32;100260.60;;;6.18
68911;BMP180;55953;51.650;-0.522;2022-11-20T00:19:00;100251.60;;;6.10
68911;BMP180;55953;51.650;-0.522;2022-11-20T00:21:29;100261.40;;;6.00
68911;BMP180;55953;51.650;-0.522;2022-11-20T00:23:58;100254.20;;;6.10
68911;BMP180;55953;51.650;-0.522;2022-11-20T00:26:27;100252.00;;;6.20
68911;BMP180;55953;51.650;-0.522;2022-11-20T00:29:00;100252.60;;;6.10
68911;BMP180;55953;51.650;-0.522;2022-11-20T00:31:30;100252.40;;;6.20
68911;BMP180;55953;51.650;-0.522;2022-11-20T00:33:58;100254.20;;;6.20
68911;BMP180;55953;51.650;-0.522;2022-11-20T00:36:28;100246.80;;;6.36
68911;BMP180;55953;51.650;-0.522;2022-11-20T00:38:57;100239.00;;;6.40
68911;BMP180;55953;51.650;-0.522;2022-11-20T00:41:28;100230.40;;;6.36
68911;BMP180;55953;51.650;-0.522;2022-11-20T00:43:57;100232.00;;;6.40
68911;BMP180;55953;51.650;-0.522;2022-11-20T00:46:27;100231.00;;;6.40
68911;BMP180;55953;51.650;-0.522;2022-11-20T00:48:55;100223.00;;;6.50
68911;BMP180;55953;51.650;-0.522;2022-11-20T00:51:26;100218.00;;;6.50
68911;BMP180;55953;51.650;-0.522;2022-11-20T00:53:56;100223.60;;;6.52
68911;BMP180;55953;51.650;-0.522;2022-11-20T00:56:25;100224.80;;;6.52
68911;BMP180;55953;51.650;-0.522;2022-11-20T00:58:53;100223.00;;;6.60
68911;BMP180;55953;51.650;-0.522;2022-11-20T01:01:25;100219.40;;;6.60
68911;BMP180;55953;51.650;-0.522;2022-11-20T01:03:56;100212.00;;;6.62
68911;BMP180;55953;51.650;-0.522;2022-11-20T01:06:34;100215.40;;;6.70
68911;BMP180;55953;51.650;-0.522;2022-11-20T01:09:10;100203.80;;;6.70
68911;BMP180;55953;51.650;-0.522;2022-11-20T01:11:44;100201.00;;;6.70
68911;BMP180;55953;51.650;-0.522;2022-11-20T01:14:18;100195.60;;;6.80
68911;BMP180;55953;51.650;-0.522;2022-11-20T01:16:50;100193.80;;;6.90
68911;BMP180;55953;51.650;-0.522;2022-11-20T01:19:22;100193.00;;;6.96
68911;BMP180;55953;51.650;-0.522;2022-11-20T01:21:53;100191.60;;;7.06
68911;BMP180;55953;51.650;-0.522;2022-11-20T01:24:22;100190.20;;;7.10
68911;BMP180;55953;51.650;-0.522;2022-11-20T01:26:50;100186.80;;;7.10
68911;BMP180;55953;51.650;-0.522;2022-11-20T01:29:22;100184.20;;;7.12
68911;BMP180;55953;51.650;-0.522;2022-11-20T01:31:52;100182.20;;;7.20
68911;BMP180;55953;51.650;-0.522;2022-11-20T01:34:22;100179.40;;;7.20
68911;BMP180;55953;51.650;-0.522;2022-11-20T01:36:52;100174.40;;;7.20
68911;BMP180;55953;51.650;-0.522;2022-11-20T01:39:24;100168.60;;;7.20
68911;BMP180;55953;51.650;-0.522;2022-11-20T01:41:55;100168.40;;;7.20
68911;BMP180;55953;51.650;-0.522;2022-11-20T01:44:56;100163.40;;;7.14
68911;BMP180;55953;51.650;-0.522;2022-11-20T01:47:36;100157.60;;;7.10
68911;BMP180;55953;51.650;-0.522;2022-11-20T01:50:15;100153.40;;;7.10
68911;BMP180;55953;51.650;-0.522;2022-11-20T01:53:02;100146.60;;;7.20
68911;BMP180;55953;51.650;-0.522;2022-11-20T01:55:37;100144.40;;;7.30
68911;BMP180;55953;51.650;-0.522;2022-11-20T01:58:08;100125.60;;;7.20
68911;BMP180;55953;51.650;-0.522;2022-11-20T02:00:36;100130.00;;;7.10
68911;BMP180;55953;51.650;-0.522;2022-11-20T02:03:09;100124.60;;;7.18
68911;BMP180;55953;51.650;-0.522;2022-11-20T02:08:32;100122.20;;;7.14
68911;BMP180;55953;51.650;-0.522;2022-11-20T02:11:00;100115.20;;;7.10
68911;BMP180;55953;51.650;-0.522;2022-11-20T02:13:29;100120.60;;;7.16
68911;BMP180;55953;51.650;-0.522;2022-11-20T02:16:23;100116.00;;;7.20
68911;BMP180;55953;51.650;-0.522;2022-11-20T02:18:55;100112.00;;;7.30
68911;BMP180;55953;51.650;-0.522;2022-11-20T02:21:56;100106.40;;;7.30
68911;BMP180;55953;51.650;-0.522;2022-11-20T02:24:21;100100.20;;;7.30
68911;BMP180;55953;51.650;-0.522;2022-11-20T02:27:04;100096.40;;;7.40
68911;BMP180;55953;51.650;-0.522;2022-11-20T02:29:42;100096.60;;;7.30
68911;BMP180;55953;51.650;-0.522;2022-11-20T02:32:25;100092.00;;;7.36
68911;BMP180;55953;51.650;-0.522;2022-11-20T02:34:54;100095.00;;;7.50
68911;BMP180;55953;51.650;-0.522;2022-11-20T02:37:29;100087.80;;;7.46
68911;BMP180;55953;51.650;-0.522;2022-11-20T02:39:57;100085.00;;;7.50
68911;BMP180;55953;51.650;-0.522;2022-11-20T02:42:25;100076.60;;;7.50
68911;BMP180;55953;51.650;-0.522;2022-11-20T02:44:53;100075.20;;;7.60
68911;BMP180;55953;51.650;-0.522;2022-11-20T02:47:21;100069.40;;;7.60
68911;BMP180;55953;51.650;-0.522;2022-11-20T02:49:48;100061.60;;;7.50
68911;BMP180;55953;51.650;-0.522;2022-11-20T02:52:16;100061.60;;;7.50
68911;BMP180;55953;51.650;-0.522;2022-11-20T02:54:43;100054.80;;;7.48
68911;BMP180;55953;51.650;-0.522;2022-11-20T02:57:11;100056.80;;;7.60
68911;BMP180;55953;51.650;-0.522;2022-11-20T02:59:39;100054.20;;;7.56
68911;BMP180;55953;51.650;-0.522;2022-11-20T03:02:07;100053.20;;;7.48
68911;BMP180;55953;51.650;-0.522;2022-11-20T03:04:34;100058.40;;;7.40
68911;BMP180;55953;51.650;-0.522;2022-11-20T03:07:04;100052.60;;;7.40
68911;BMP180;55953;51.650;-0.522;2022-11-20T03:09:32;100045.40;;;7.30
68911;BMP180;55953;51.650;-0.522;2022-11-20T03:12:00;100047.40;;;7.30
68911;BMP180;55953;51.650;-0.522;2022-11-20T03:14:28;100041.60;;;7.40
68911;BMP180;55953;51.650;-0.522;2022-11-20T03:16:55;100032.80;;;7.40
68911;BMP180;55953;51.650;-0.522;2022-11-20T03:19:24;100029.60;;;7.40
68911;BMP180;55953;51.650;-0.522;2022-11-20T03:21:51;100024.80;;;7.40
68911;BMP180;55953;51.650;-0.522;2022-11-20T03:24:19;100024.00;;;7.40
68911;BMP180;55953;51.650;-0.522;2022-11-20T03:26:47;100025.20;;;7.44
68911;BMP180;55953;51.650;-0.522;2022-11-20T03:29:14;100017.20;;;7.56
68911;BMP180;55953;51.650;-0.522;2022-11-20T03:31:42;100009.60;;;7.70
68911;BMP180;55953;51.650;-0.522;2022-11-20T03:34:11;100006.80;;;7.64
68911;BMP180;55953;51.650;-0.522;2022-11-20T03:36:41;100003.80;;;7.60
68911;BMP180;55953;51.650;-0.522;2022-11-20T03:39:09;99992.40;;;7.54
68911;BMP180;55953;51.650;-0.522;2022-11-20T03:41:40;99988.20;;;7.50
68911;BMP180;55953;51.650;-0.522;2022-11-20T03:44:10;99984.00;;;7.50
68911;BMP180;55953;51.650;-0.522;2022-11-20T03:46:38;99984.00;;;7.42
68911;BMP180;55953;51.650;-0.522;2022-11-20T03:49:06;99982.20;;;7.46
68911;BMP180;55953;51.650;-0.522;2022-11-20T03:51:35;99970.20;;;7.52
68911;BMP180;55953;51.650;-0.522;2022-11-20T03:54:08;99966.60;;;7.50
68911;BMP180;55953;51.650;-0.522;2022-11-20T03:56:38;99966.20;;;7.56
68911;BMP180;55953;51.650;-0.522;2022-11-20T03:59:06;99961.80;;;7.52
68911;BMP180;55953;51.650;-0.522;2022-11-20T04:01:36;99956.80;;;7.60
68911;BMP180;55953;51.650;-0.522;2022-11-20T04:04:05;99943.20;;;7.58
68911;BMP180;55953;51.650;-0.522;2022-11-20T04:06:37;99930.40;;;7.52
68911;BMP180;55953;51.650;-0.522;2022-11-20T04:09:06;99930.40;;;7.50
68911;BMP180;55953;51.650;-0.522;2022-11-20T04:11:36;99923.60;;;7.50
68911;BMP180;55953;51.650;-0.522;2022-11-20T04:14:11;99924.40;;;7.40
68911;BMP180;55953;51.650;-0.522;2022-11-20T04:16:40;99934.40;;;7.40
68911;BMP180;55953;51.650;-0.522;2022-11-20T04:19:14;99931.20;;;7.40
68911;BMP180;55953;51.650;-0.522;2022-11-20T04:21:43;99927.20;;;7.40
68911;BMP180;55953;51.650;-0.522;2022-11-20T04:24:12;99926.40;;;7.40
68911;BMP180;55953;51.650;-0.522;2022-11-20T04:26:40;99929.80;;;7.40
68911;BMP180;55953;51.650;-0.522;2022-11-20T04:29:11;99928.40;;;7.40
68911;BMP180;55953;51.650;-0.522;2022-11-20T04:31:39;99922.00;;;7.30
68911;BMP180;55953;51.650;-0.522;2022-11-20T04:34:07;99922.60;;;7.30
68911;BMP180;55953;51.650;-0.522;2022-11-20T04:36:35;99919.40;;;7.40
68911;BMP180;55953;51.650;-0.522;2022-11-20T04:39:05;99922.60;;;7.34
68911;BMP180;55953;51.650;-0.522;2022-11-20T04:41:36;99909.20;;;7.30
68911;BMP180;55953;51.650;-0.522;2022-11-20T04:44:05;99899.60;;;7.30
68911;BMP180;55953;51.650;-0.522;2022-11-20T04:46:42;99895.20;;;7.30
68911;BMP180;55953;51.650;-0.522;2022-11-20T04:49:11;99886.40;;;7.40
68911;BMP180;55953;51.650;-0.522;2022-11-20T04:51:39;99891.20;;;7.40
68911;BMP180;55953;51.650;-0.522;2022-11-20T04:54:07;99888.20;;;7.40
68911;BMP180;55953;51.650;-0.522;2022-11-20T04:56:35;99883.80;;;7.40
68911;BMP180;55953;51.650;-0.522;2022-11-20T04:59:03;99880.00;;;7.46
68911;BMP180;55953;51.650;-0.522;2022-11-20T05:01:31;99872.60;;;7.50
68911;BMP180;55953;51.650;-0.522;2022-11-20T05:04:00;99868.20;;;7.50
68911;BMP180;55953;51.650;-0.522;2022-11-20T05:06:27;99867.20;;;7.50
68911;BMP180;55953;51.650;-0.522;2022-11-20T05:08:55;99862.60;;;7.56
68911;BMP180;55953;51.650;-0.522;2022-11-20T05:11:23;99864.40;;;7.60
68911;BMP180;55953;51.650;-0.522;2022-11-20T05:13:51;99858.60;;;7.60
68911;BMP180;55953;51.650;-0.522;2022-11-20T05:16:23;99867.40;;;7.60
68911;BMP180;55953;51.650;-0.522;2022-11-20T05:18:53;99864.00;;;7.60
68911;BMP180;55953;51.650;-0.522;2022-11-20T05:21:22;99856.40;;;7.60
68911;BMP180;55953;51.650;-0.522;2022-11-20T05:23:49;99850.60;;;7.66
68911;BMP180;55953;51.650;-0.522;2022-11-20T05:26:21;99839.60;;;7.70
68911;BMP180;55953;51.650;-0.522;2022-11-20T05:28:50;99837.80;;;7.70
68911;BMP180;55953;51.650;-0.522;2022-11-20T05:31:22;99834.00;;;7.70
68911;BMP180;55953;51.650;-0.522;2022-11-20T05:33:56;99824.80;;;7.70
68911;BMP180;55953;51.650;-0.522;2022-11-20T05:36:24;99822.80;;;7.74
68911;BMP180;55953;51.650;-0.522;2022-11-20T05:38:52;99825.20;;;7.80
68911;BMP180;55953;51.650;-0.522;2022-11-20T05:41:27;99825.00;;;7.80
68911;BMP180;55953;51.650;-0.522;2022-11-20T05:43:57;99812.00;;;7.80
68911;BMP180;55953;51.650;-0.522;2022-11-20T05:46:25;99824.80;;;7.80
68911;BMP180;55953;51.650;-0.522;2022-11-20T05:48:57;99818.40;;;7.80
68911;BMP180;55953;51.650;-0.522;2022-11-20T05:51:25;99808.20;;;7.80
68911;BMP180;55953;51.650;-0.522;2022-11-20T05:53:56;99805.40;;;7.90
68911;BMP180;55953;51.650;-0.522;2022-11-20T05:56:23;99807.60;;;7.90
68911;BMP180;55953;51.650;-0.522;2022-11-20T05:58:51;99802.80;;;7.90
68911;BMP180;55953;51.650;-0.522;2022-11-20T06:01:24;99807.80;;;8.00
68911;BMP180;55953;51.650;-0.522;2022-11-20T06:03:53;99802.60;;;8.06
68911;BMP180;55953;51.650;-0.522;2022-11-20T06:06:22;99797.20;;;8.00
68911;BMP180;55953;51.650;-0.522;2022-11-20T06:08:50;99790.40;;;8.00
68911;BMP180;55953;51.650;-0.522;2022-11-20T06:11:18;99792.00;;;8.00
68911;BMP180;55953;51.650;-0.522;2022-11-20T06:13:47;99793.80;;;8.00
68911;BMP180;55953;51.650;-0.522;2022-11-20T06:16:18;99793.00;;;8.00
68911;BMP180;55953;51.650;-0.522;2022-11-20T06:18:47;99801.40;;;8.00
68911;BMP180;55953;51.650;-0.522;2022-11-20T06:21:19;99798.80;;;8.00
68911;BMP180;55953;51.650;-0.522;2022-11-20T06:23:48;99799.00;;;7.98
68911;BMP180;55953;51.650;-0.522;2022-11-20T06:26:21;99804.40;;;8.00
68911;BMP180;55953;51.650;-0.522;2022-11-20T06:28:51;99825.60;;;8.00
68911;BMP180;55953;51.650;-0.522;2022-11-20T06:31:22;99814.80;;;8.00
68911;BMP180;55953;51.650;-0.522;2022-11-20T06:33:51;99807.40;;;8.00
68911;BMP180;55953;51.650;-0.522;2022-11-20T06:36:22;99811.00;;;8.00
68911;BMP180;55953;51.650;-0.522;2022-11-20T06:38:50;99822.00;;;8.00
68911;BMP180;55953;51.650;-0.522;2022-11-20T06:41:20;99818.00;;;8.00
68911;BMP180;55953;51.650;-0.522;2022-11-20T06:43:49;99818.80;;;8.00
68911;BMP180;55953;51.650;-0.522;2022-11-20T06:46:19;99808.60;;;8.10
68911;BMP180;55953;51.650;-0.522;2022-11-20T06:48:49;99801.60;;;8.20
68911;BMP180;55953;51.650;-0.522;2022-11-20T06:51:17;99810.00;;;8.20
68911;BMP180;55953;51.650;-0.522;2022-11-20T06:53:45;99805.60;;;8.10
68911;BMP180;55953;51.650;-0.522;2022-11-20T06:56:13;99798.40;;;8.10
68911;BMP180;55953;51.650;-0.522;2022-11-20T06:58:40;99798.80;;;8.10
68911;BMP180;55953;51.650;-0.522;2022-11-20T07:01:14;99793.20;;;8.10
68911;BMP180;55953;51.650;-0.522;2022-11-20T07:03:42;99785.40;;;8.30
68911;BMP180;55953;51.650;-0.522;2022-11-20T07:06:10;99788.40;;;8.40
68911;BMP180;55953;51.650;-0.522;2022-11-20T07:08:38;99786.40;;;8.40
68911;BMP180;55953;51.650;-0.522;2022-11-20T07:11:07;99786.20;;;8.40
68911;BMP180;55953;51.650;-0.522;2022-11-20T07:13:35;99789.60;;;8.40
68911;BMP180;55953;51.650;-0.522;2022-11-20T07:16:07;99772.80;;;8.32
68911;BMP180;55953;51.650;-0.522;2022-11-20T07:18:35;99769.20;;;8.40
68911;BMP180;55953;51.650;-0.522;2022-11-20T07:21:07;99768.20;;;8.40
68911;BMP180;55953;51.650;-0.522;2022-11-20T07:23:36;99766.20;;;8.40
68911;BMP180;55953;51.650;-0.522;2022-11-20T07:26:07;99759.80;;;8.40
68911;BMP180;55953;51.650;-0.522;2022-11-20T07:28:35;99759.40;;;8.40
68911;BMP180;55953;51.650;-0.522;2022-11-20T07:31:03;99758.60;;;8.30
68911;BMP180;55953;51.650;-0.522;2022-11-20T07:33:32;99761.20;;;8.40
68911;BMP180;55953;51.650;-0.522;2022-11-20T07:36:01;99760.20;;;8.36
68911;BMP180;55953;51.650;-0.522;2022-11-20T07:38:29;99766.20;;;8.40
68911;BMP180;55953;51.650;-0.522;2022-11-20T07:40:57;99768.80;;;8.50
68911;BMP180;55953;51.650;-0.522;2022-11-20T07:43:25;99773.40;;;8.50
68911;BMP180;55953;51.650;-0.522;2022-11-20T07:45:57;99775.40;;;8.40
68911;BMP180;55953;51.650;-0.522;2022-11-20T07:48:26;99775.60;;;8.40
68911;BMP180;55953;51.650;-0.522;2022-11-20T07:50:58;99775.20;;;8.30
68911;BMP180;55953;51.650;-0.522;2022-11-20T07:53:25;99783.80;;;8.10
68911;BMP180;55953;51.650;-0.522;2022-11-20T07:55:53;99782.20;;;8.00
68911;BMP180;55953;51.650;-0.522;2022-11-20T07:58:21;99779.60;;;7.90
68911;BMP180;55953;51.650;-0.522;2022-11-20T08:00:49;99786.80;;;7.90
68911;BMP180;55953;51.650;-0.522;2022-11-20T08:03:17;99790.80;;;7.90
68911;BMP180;55953;51.650;-0.522;2022-11-20T08:05:51;99794.80;;;7.80
68911;BMP180;55953;51.650;-0.522;2022-11-20T08:08:20;99799.40;;;7.80
68911;BMP180;55953;51.650;-0.522;2022-11-20T08:10:48;99802.00;;;7.80
68911;BMP180;55953;51.650;-0.522;2022-11-20T08:13:16;99806.60;;;7.80
68911;BMP180;55953;51.650;-0.522;2022-11-20T08:16:03;99816.60;;;7.80
68911;BMP180;55953;51.650;-0.522;2022-11-20T08:18:31;99814.40;;;7.80
68911;BMP180;55953;51.650;-0.522;2022-11-20T08:21:04;99814.00;;;7.84
68911;BMP180;55953;51.650;-0.522;2022-11-20T08:23:32;99822.20;;;7.86
68911;BMP180;55953;51.650;-0.522;2022-11-20T08:25:59;99824.20;;;7.84
68911;BMP180;55953;51.650;-0.522;2022-11-20T08:28:27;99828.00;;;7.90
68911;BMP180;55953;51.650;-0.522;2022-11-20T08:31:00;99826.80;;;7.90
68911;BMP180;55953;51.650;-0.522;2022-11-20T08:33:29;99822.00;;;7.90
68911;BMP180;55953;51.650;-0.522;2022-11-20T08:36:01;99824.20;;;8.00
68911;BMP180;55953;51.650;-0.522;2022-11-20T08:38:31;99818.20;;;8.06
68911;BMP180;55953;51.650;-0.522;2022-11-20T08:41:00;99822.60;;;8.10
68911;BMP180;55953;51.650;-0.522;2022-11-20T08:43:47;99816.80;;;8.10
68911;BMP180;55953;51.650;-0.522;2022-11-20T08:46:15;99813.20;;;8.20
68911;BMP180;55953;51.650;-0.522;2022-11-20T08:48:43;99815.40;;;8.20
68911;BMP180;55953;51.650;-0.522;2022-11-20T08:51:12;99804.20;;;8.20
68911;BMP180;55953;51.650;-0.522;2022-11-20T08:53:40;99804.60;;;8.30
68911;BMP180;55953;51.650;-0.522;2022-11-20T08:56:08;99821.20;;;8.40
68911;BMP180;55953;51.650;-0.522;2022-11-20T08:58:40;99819.00;;;8.46
68911;BMP180;55953;51.650;-0.522;2022-11-20T09:01:28;99829.40;;;8.60
68911;BMP180;55953;51.650;-0.522;2022-11-20T09:03:57;99821.40;;;8.64
68911;BMP180;55953;51.650;-0.522;2022-11-20T09:06:25;99826.00;;;8.70
68911;BMP180;55953;51.650;-0.522;2022-11-20T09:08:54;99822.20;;;8.70
68911;BMP180;55953;51.650;-0.522;2022-11-20T09:11:22;99822.80;;;8.70
68911;BMP180;55953;51.650;-0.522;2022-11-20T09:13:50;99825.40;;;8.70
68911;BMP180;55953;51.650;-0.522;2022-11-20T09:16:18;99826.40;;;8.68
68911;BMP180;55953;51.650;-0.522;2022-11-20T09:18:45;99835.20;;;8.60
68911;BMP180;55953;51.650;-0.522;2022-11-20T09:21:13;99848.20;;;8.60
68911;BMP180;55953;51.650;-0.522;2022-11-20T09:23:41;99858.00;;;8.60
68911;BMP180;55953;51.650;-0.522;2022-11-20T09:26:14;99863.60;;;8.58
68911;BMP180;55953;51.650;-0.522;2022-11-20T09:28:42;99856.80;;;8.60
68911;BMP180;55953;51.650;-0.522;2022-11-20T09:31:22;99849.40;;;8.60
68911;BMP180;55953;51.650;-0.522;2022-11-20T09:33:50;99851.80;;;8.60
68911;BMP180;55953;51.650;-0.522;2022-11-20T09:36:18;99855.00;;;8.66
68911;BMP180;55953;51.650;-0.522;2022-11-20T09:38:46;99849.40;;;8.70
68911;BMP180;55953;51.650;-0.522;2022-11-20T09:48:48;99836.80;;;8.80
68911;BMP180;55953;51.650;-0.522;2022-11-20T09:50:54;99829.20;;;8.80
68911;BMP180;55953;51.650;-0.522;2022-11-20T09:56:12;99834.60;;;8.86
68911;BMP180;55953;51.650;-0.522;2022-11-20T09:58:52;99837.60;;;8.90
68911;BMP180;55953;51.650;-0.522;2022-11-20T10:01:26;99834.60;;;8.90
68911;BMP180;55953;51.650;-0.522;2022-11-20T10:04:16;99830.60;;;9.00
68911;BMP180;55953;51.650;-0.522;2022-11-20T10:07:06;99821.60;;;9.10
68911;BMP180;55953;51.650;-0.522;2022-11-20T10:09:56;99821.40;;;9.20
68911;BMP180;55953;51.650;-0.522;2022-11-20T10:12:49;99823.40;;;9.20
68911;BMP180;55953;51.650;-0.522;2022-11-20T10:15:34;99825.00;;;9.30
68911;BMP180;55953;51.650;-0.522;2022-11-20T10:18:23;99823.40;;;9.40
68911;BMP180;55953;51.650;-0.522;2022-11-20T10:21:26;99817.00;;;9.40
68911;BMP180;55953;51.650;-0.522;2022-11-20T10:24:27;99822.80;;;9.50
68911;BMP180;55953;51.650;-0.522;2022-11-20T10:27:17;99828.20;;;9.50
68911;BMP180;55953;51.650;-0.522;2022-11-20T10:29:59;99828.40;;;9.50
68911;BMP180;55953;51.650;-0.522;2022-11-20T10:32:36;99834.80;;;9.50
68911;BMP180;55953;51.650;-0.522;2022-11-20T10:35:44;99832.80;;;9.50
68911;BMP180;55953;51.650;-0.522;2022-11-20T10:38:25;99830.60;;;9.50
68911;BMP180;55953;51.650;-0.522;2022-11-20T10:41:01;99835.20;;;9.60
68911;BMP180;55953;51.650;-0.522;2022-11-20T10:43:56;99826.80;;;9.70
68911;BMP180;55953;51.650;-0.522;2022-11-20T10:46:39;99822.60;;;9.70
68911;BMP180;55953;51.650;-0.522;2022-11-20T10:49:14;99827.80;;;9.80
68911;BMP180;55953;51.650;-0.522;2022-11-20T10:52:09;99834.40;;;9.80
68911;BMP180;55953;51.650;-0.522;2022-11-20T10:54:57;99832.40;;;9.90
68911;BMP180;55953;51.650;-0.522;2022-11-20T10:58:00;99822.80;;;9.90
68911;BMP180;55953;51.650;-0.522;2022-11-20T11:00:32;99821.80;;;10.00
68911;BMP180;55953;51.650;-0.522;2022-11-20T11:03:00;99819.60;;;10.00
68911;BMP180;55953;51.650;-0.522;2022-11-20T11:05:41;99822.80;;;10.08
68911;BMP180;55953;51.650;-0.522;2022-11-20T11:08:15;99821.00;;;10.10
68911;BMP180;55953;51.650;-0.522;2022-11-20T11:10:56;99812.80;;;10.10
68911;BMP180;55953;51.650;-0.522;2022-11-20T11:13:28;99825.20;;;10.10
68911;BMP180;55953;51.650;-0.522;2022-11-20T11:15:57;99824.60;;;10.20
68911;BMP180;55953;51.650;-0.522;2022-11-20T11:18:34;99824.40;;;10.20
68911;BMP180;55953;51.650;-0.522;2022-11-20T11:21:04;99824.80;;;10.26
68911;BMP180;55953;51.650;-0.522;2022-11-20T11:23:41;99818.60;;;10.30
68911;BMP180;55953;51.650;-0.522;2022-11-20T11:26:22;99816.80;;;10.36
68911;BMP180;55953;51.650;-0.522;2022-11-20T11:28:58;99816.80;;;10.40
68911;BMP180;55953;51.650;-0.522;2022-11-20T11:31:30;99815.80;;;10.42
68911;BMP180;55953;51.650;-0.522;2022-11-20T11:34:12;99819.40;;;10.50
68911;BMP180;55953;51.650;-0.522;2022-11-20T11:36:41;99831.20;;;10.50
68911;BMP180;55953;51.650;-0.522;2022-11-20T11:39:15;99827.00;;;10.50
68911;BMP180;55953;51.650;-0.522;2022-11-20T11:41:45;99828.00;;;10.50
68911;BMP180;55953;51.650;-0.522;2022-11-20T11:44:22;99820.20;;;10.50
68911;BMP180;55953;51.650;-0.522;2022-11-20T11:50:19;99809.60;;;10.52
68911;BMP180;55953;51.650;-0.522;2022-11-20T11:53:12;99799.80;;;10.50
68911;BMP180;55953;51.650;-0.522;2022-11-20T11:56:00;99803.00;;;10.50
68911;BMP180;55953;51.650;-0.522;2022-11-20T11:58:46;99804.80;;;10.50
68911;BMP180;55953;51.650;-0.522;2022-11-20T12:01:26;99804.40;;;10.56
68911;BMP180;55953;51.650;-0.522;2022-11-20T12:07:25;99805.00;;;10.60
68911;BMP180;55953;51.650;-0.522;2022-11-20T12:10:50;99811.20;;;10.70
68911;BMP180;55953;51.650;-0.522;2022-11-20T12:16:03;99809.40;;;10.70
68911;BMP180;55953;51.650;-0.522;2022-11-20T12:18:31;99818.60;;;10.68
68911;BMP180;55953;51.650;-0.522;2022-11-20T12:21:31;99821.00;;;10.70
68911;BMP180;55953;51.650;-0.522;2022-11-20T12:24:26;99822.80;;;10.70
68911;BMP180;55953;51.650;-0.522;2022-11-20T12:27:32;99817.20;;;10.70
68911;BMP180;55953;51.650;-0.522;2022-11-20T12:30:18;99817.00;;;10.64
68911;BMP180;55953;51.650;-0.522;2022-11-20T12:38:32;99835.20;;;10.70
68911;BMP180;55953;51.650;-0.522;2022-11-20T12:41:44;99831.00;;;10.70
68911;BMP180;55953;51.650;-0.522;2022-11-20T12:56:38;99835.00;;;10.70
68911;BMP180;55953;51.650;-0.522;2022-11-20T12:59:47;99828.80;;;10.72
68911;BMP180;55953;51.650;-0.522;2022-11-20T13:02:33;99833.40;;;10.76
68911;BMP180;55953;51.650;-0.522;2022-11-20T13:05:37;99853.20;;;10.80
68911;BMP180;55953;51.650;-0.522;2022-11-20T13:08:36;99844.40;;;10.80
68911;BMP180;55953;51.650;-0.522;2022-11-20T13:11:24;99847.40;;;10.80
68911;BMP180;55953;51.650;-0.522;2022-11-20T13:16:58;99841.80;;;10.80
68911;BMP180;55953;51.650;-0.522;2022-11-20T13:19:33;99835.80;;;10.80
68911;BMP180;55953;51.650;-0.522;2022-11-20T13:22:01;99847.20;;;10.82
68911;BMP180;55953;51.650;-0.522;2022-11-20T13:24:31;99845.20;;;10.90
68911;BMP180;55953;51.650;-0.522;2022-11-20T13:27:22;99847.20;;;10.90
68911;BMP180;55953;51.650;-0.522;2022-11-20T13:30:13;99852.60;;;10.98
68911;BMP180;55953;51.650;-0.522;2022-11-20T13:33:20;99849.00;;;11.00
68911;BMP180;55953;51.650;-0.522;2022-11-20T13:36:07;99849.20;;;11.10
68911;BMP180;55953;51.650;-0.522;2022-11-20T13:38:51;99848.40;;;11.10
68911;BMP180;55953;51.650;-0.522;2022-11-20T13:46:46;99826.60;;;11.10
68911;BMP180;55953;51.650;-0.522;2022-11-20T13:49:37;99818.20;;;11.10
68911;BMP180;55953;51.650;-0.522;2022-11-20T13:53:07;99806.20;;;11.10
68911;BMP180;55953;51.650;-0.522;2022-11-20T13:55:59;99803.20;;;11.10
68911;BMP180;55953;51.650;-0.522;2022-11-20T13:58:48;99795.80;;;11.00
68911;BMP180;55953;51.650;-0.522;2022-11-20T14:01:24;99801.20;;;11.00
68911;BMP180;55953;51.650;-0.522;2022-11-20T14:03:53;99795.40;;;10.90
68911;BMP180;55953;51.650;-0.522;2022-11-20T14:06:45;99792.20;;;10.90
68911;BMP180;55953;51.650;-0.522;2022-11-20T14:09:31;99785.40;;;11.00
68911;BMP180;55953;51.650;-0.522;2022-11-20T14:12:01;99784.60;;;11.00
68911;BMP180;55953;51.650;-0.522;2022-11-20T14:14:33;99778.80;;;11.10
68911;BMP180;55953;51.650;-0.522;2022-11-20T14:20:15;99790.60;;;11.10
68911;BMP180;55953;51.650;-0.522;2022-11-20T14:22:53;99798.40;;;11.10
68911;BMP180;55953;51.650;-0.522;2022-11-20T14:25:25;99807.40;;;11.00
68911;BMP180;55953;51.650;-0.522;2022-11-20T14:28:01;99805.00;;;11.02
68911;BMP180;55953;51.650;-0.522;2022-11-20T14:30:54;99814.60;;;11.00
68911;BMP180;55953;51.650;-0.522;2022-11-20T14:33:26;99810.40;;;11.00
68911;BMP180;55953;51.650;-0.522;2022-11-20T14:35:57;99822.40;;;11.00
68911;BMP180;55953;51.650;-0.522;2022-11-20T14:38:28;99824.20;;;10.90
68911;BMP180;55953;51.650;-0.522;2022-11-20T14:41:08;99835.80;;;10.80
68911;BMP180;55953;51.650;-0.522;2022-11-20T14:43:36;99845.20;;;10.72
68911;BMP180;55953;51.650;-0.522;2022-11-20T14:46:08;99848.60;;;10.60
68911;BMP180;55953;51.650;-0.522;2022-11-20T14:48:45;99829.00;;;10.40
68911;BMP180;55953;51.650;-0.522;2022-11-20T14:51:30;99827.00;;;10.40
68911;BMP180;55953;51.650;-0.522;2022-11-20T14:54:28;99825.00;;;10.40
68911;BMP180;55953;51.650;-0.522;2022-11-20T14:57:02;99826.40;;;10.40
68911;BMP180;55953;51.650;-0.522;2022-11-20T14:59:32;99820.20;;;10.40
68911;BMP180;55953;51.650;-0.522;2022-11-20T15:02:06;99816.80;;;10.40
68911;BMP180;55953;51.650;-0.522;2022-11-20T15:04:50;99814.20;;;10.40
68911;BMP180;55953;51.650;-0.522;2022-11-20T15:07:31;99815.20;;;10.30
68911;BMP180;55953;51.650;-0.522;2022-11-20T15:10:24;99816.60;;;10.28
68911;BMP180;55953;51.650;-0.522;2022-11-20T15:12:55;99810.40;;;10.24
68911;BMP180;55953;51.650;-0.522;2022-11-20T15:15:41;99802.60;;;10.20
68911;BMP180;55953;51.650;-0.522;2022-11-20T15:18:17;99799.80;;;10.20
68911;BMP180;55953;51.650;-0.522;2022-11-20T15:20:45;99806.60;;;10.24
68911;BMP180;55953;51.650;-0.522;2022-11-20T15:23:18;99803.60;;;10.22
68911;BMP180;55953;51.650;-0.522;2022-11-20T15:25:47;99800.80;;;10.20
68911;BMP180;55953;51.650;-0.522;2022-11-20T15:28:33;99795.20;;;10.20
68911;BMP180;55953;51.650;-0.522;2022-11-20T15:31:01;99799.60;;;10.20
68911;BMP180;55953;51.650;-0.522;2022-11-20T15:33:32;99801.00;;;10.20